sensor_id;sensor_type;location;lat;lon;timestamp;temperature;humidity
37108;DHT22;23019;49.300;6.846;2022-10-16T00:01:47;32.80;99.90
37108;DHT22;23019;49.300;6.846;2022-10-16T00:03:48;32.70;99.90
37108;DHT22;23019;49.300;6.846;2022-10-16T00:05:49;32.60;99.90
37108;DHT22;23019;49.300;6.846;2022-10-16T00:07:50;32.60;99.90
37108;DHT22;23019;49.300;6.846;2022-10-16T00:09:51;32.60;99.90
37108;DHT22;23019;49.300;6.846;2022-10-16T00:11:52;32.60;99.90
37108;DHT22;23019;49.300;6.846;2022-10-16T00:13:56;32.60;99.90
37108;DHT22;23019;49.300;6.846;2022-10-16T00:15:58;32.40;99.90
37108;DHT22;23019;49.300;6.846;2022-10-16T00:17:59;32.50;99.90
37108;DHT22;23019;49.300;6.846;2022-10-16T00:20:00;32.50;99.90
37108;DHT22;23019;49.300;6.846;2022-10-16T00:22:01;32.50;99.90
37108;DHT22;23019;49.300;6.846;2022-10-16T00:24:05;32.40;99.90
37108;DHT22;23019;49.300;6.846;2022-10-16T00:26:09;32.40;99.90
37108;DHT22;23019;49.300;6.846;2022-10-16T00:28:11;32.30;99.90
37108;DHT22;23019;49.300;6.846;2022-10-16T00:30:12;32.20;99.90
37108;DHT22;23019;49.300;6.846;2022-10-16T00:32:13;32.20;99.90
37108;DHT22;23019;49.300;6.846;2022-10-16T00:34:13;32.20;99.90
37108;DHT22;23019;49.300;6.846;2022-10-16T00:36:17;32.20;99.90
37108;DHT22;23019;49.300;6.846;2022-10-16T00:38:18;32.10;99.90
37108;DHT22;23019;49.300;6.846;2022-10-16T00:40:19;32.10;99.90
37108;DHT22;23019;49.300;6.846;2022-10-16T00:42:19;32.10;99.90
37108;DHT22;23019;49.300;6.846;2022-10-16T00:44:56;32.00;99.90
37108;DHT22;23019;49.300;6.846;2022-10-16T00:46:59;31.90;99.90
37108;DHT22;23019;49.300;6.846;2022-10-16T00:49:10;31.90;99.90
37108;DHT22;23019;49.300;6.846;2022-10-16T00:51:11;31.80;99.90
37108;DHT22;23019;49.300;6.846;2022-10-16T00:53:12;31.80;99.90
37108;DHT22;23019;49.300;6.846;2022-10-16T00:55:13;31.80;99.90
37108;DHT22;23019;49.300;6.846;2022-10-16T00:57:14;31.70;99.90
37108;DHT22;23019;49.300;6.846;2022-10-16T00:59:27;31.60;99.90
37108;DHT22;23019;49.300;6.846;2022-10-16T01:01:29;31.60;99.90
37108;DHT22;23019;49.300;6.846;2022-10-16T01:03:32;31.50;99.90
37108;DHT22;23019;49.300;6.846;2022-10-16T01:05:48;31.50;99.90
37108;DHT22;23019;49.300;6.846;2022-10-16T01:08:17;31.40;99.90
37108;DHT22;23019;49.300;6.846;2022-10-16T01:10:39;31.40;99.90
37108;DHT22;23019;49.300;6.846;2022-10-16T01:12:51;31.50;99.90
37108;DHT22;23019;49.300;6.846;2022-10-16T01:15:02;31.50;99.90
37108;DHT22;23019;49.300;6.846;2022-10-16T01:17:15;31.40;99.90
37108;DHT22;23019;49.300;6.846;2022-10-16T01:21:43;31.40;99.90
37108;DHT22;23019;49.300;6.846;2022-10-16T01:24:06;31.40;99.90
37108;DHT22;23019;49.300;6.846;2022-10-16T01:28:19;31.30;99.90
37108;DHT22;23019;49.300;6.846;2022-10-16T01:30:28;31.20;99.90
37108;DHT22;23019;49.300;6.846;2022-10-16T01:32:42;31.20;99.90
37108;DHT22;23019;49.300;6.846;2022-10-16T01:37:24;31.10;99.90
37108;DHT22;23019;49.300;6.846;2022-10-16T01:39:32;31.00;99.90
37108;DHT22;23019;49.300;6.846;2022-10-16T01:41:37;31.00;99.90
37108;DHT22;23019;49.300;6.846;2022-10-16T01:43:48;31.00;99.90
37108;DHT22;23019;49.300;6.846;2022-10-16T01:45:50;30.90;99.90
37108;DHT22;23019;49.300;6.846;2022-10-16T01:47:52;30.90;99.90
37108;DHT22;23019;49.300;6.846;2022-10-16T01:49:55;30.90;99.90
37108;DHT22;23019;49.300;6.846;2022-10-16T01:51:59;30.90;99.90
37108;DHT22;23019;49.300;6.846;2022-10-16T01:54:05;30.80;99.90
37108;DHT22;23019;49.300;6.846;2022-10-16T01:56:09;30.80;99.90
37108;DHT22;23019;49.300;6.846;2022-10-16T01:58:13;30.70;99.90
37108;DHT22;23019;49.300;6.846;2022-10-16T02:00:17;30.70;99.90
37108;DHT22;23019;49.300;6.846;2022-10-16T02:02:20;30.60;99.90
37108;DHT22;23019;49.300;6.846;2022-10-16T02:04:27;30.60;99.90
37108;DHT22;23019;49.300;6.846;2022-10-16T02:06:29;30.60;99.90
37108;DHT22;23019;49.300;6.846;2022-10-16T02:08:31;30.50;99.90
37108;DHT22;23019;49.300;6.846;2022-10-16T02:10:32;30.60;99.90
37108;DHT22;23019;49.300;6.846;2022-10-16T02:12:37;30.50;99.90
37108;DHT22;23019;49.300;6.846;2022-10-16T02:14:40;30.40;99.90
37108;DHT22;23019;49.300;6.846;2022-10-16T02:16:43;30.50;99.90
37108;DHT22;23019;49.300;6.846;2022-10-16T02:18:45;30.40;99.90
37108;DHT22;23019;49.300;6.846;2022-10-16T02:23:12;30.30;99.90
37108;DHT22;23019;49.300;6.846;2022-10-16T02:25:38;30.30;99.90
37108;DHT22;23019;49.300;6.846;2022-10-16T02:27:50;30.30;99.90
37108;DHT22;23019;49.300;6.846;2022-10-16T02:29:58;30.20;99.90
37108;DHT22;23019;49.300;6.846;2022-10-16T02:32:02;30.20;99.90
37108;DHT22;23019;49.300;6.846;2022-10-16T02:34:05;30.20;99.90
37108;DHT22;23019;49.300;6.846;2022-10-16T02:36:07;30.10;99.90
37108;DHT22;23019;49.300;6.846;2022-10-16T02:38:09;30.10;99.90
37108;DHT22;23019;49.300;6.846;2022-10-16T02:40:11;30.10;99.90
37108;DHT22;23019;49.300;6.846;2022-10-16T02:42:14;30.00;99.90
37108;DHT22;23019;49.300;6.846;2022-10-16T02:44:15;30.10;99.90
37108;DHT22;23019;49.300;6.846;2022-10-16T02:46:16;30.10;99.90
37108;DHT22;23019;49.300;6.846;2022-10-16T02:48:18;30.00;99.90
37108;DHT22;23019;49.300;6.846;2022-10-16T02:50:18;29.90;99.90
37108;DHT22;23019;49.300;6.846;2022-10-16T02:52:19;29.90;99.90
37108;DHT22;23019;49.300;6.846;2022-10-16T02:54:20;30.00;99.90
37108;DHT22;23019;49.300;6.846;2022-10-16T02:56:21;29.90;99.90
37108;DHT22;23019;49.300;6.846;2022-10-16T02:58:22;29.80;99.90
37108;DHT22;23019;49.300;6.846;2022-10-16T03:00:22;29.70;99.90
37108;DHT22;23019;49.300;6.846;2022-10-16T03:02:23;29.80;99.90
37108;DHT22;23019;49.300;6.846;2022-10-16T03:04:24;29.80;99.90
37108;DHT22;23019;49.300;6.846;2022-10-16T03:06:25;29.70;99.90
37108;DHT22;23019;49.300;6.846;2022-10-16T03:08:26;29.70;99.90
37108;DHT22;23019;49.300;6.846;2022-10-16T03:10:27;29.70;99.90
37108;DHT22;23019;49.300;6.846;2022-10-16T03:12:28;29.60;99.90
37108;DHT22;23019;49.300;6.846;2022-10-16T03:14:29;29.60;99.90
37108;DHT22;23019;49.300;6.846;2022-10-16T03:16:30;29.60;99.90
37108;DHT22;23019;49.300;6.846;2022-10-16T03:18:31;29.60;99.90
37108;DHT22;23019;49.300;6.846;2022-10-16T03:20:31;29.60;99.90
37108;DHT22;23019;49.300;6.846;2022-10-16T03:22:32;29.50;99.90
37108;DHT22;23019;49.300;6.846;2022-10-16T03:24:33;29.50;99.90
37108;DHT22;23019;49.300;6.846;2022-10-16T03:26:34;29.50;99.90
37108;DHT22;23019;49.300;6.846;2022-10-16T03:28:35;29.40;99.90
37108;DHT22;23019;49.300;6.846;2022-10-16T03:30:35;29.30;99.90
37108;DHT22;23019;49.300;6.846;2022-10-16T03:32:36;29.30;99.90
37108;DHT22;23019;49.300;6.846;2022-10-16T03:34:37;29.30;99.90
37108;DHT22;23019;49.300;6.846;2022-10-16T03:36:38;29.30;99.90
37108;DHT22;23019;49.300;6.846;2022-10-16T03:38:38;29.30;99.90
37108;DHT22;23019;49.300;6.846;2022-10-16T03:40:39;29.20;99.90
37108;DHT22;23019;49.300;6.846;2022-10-16T03:42:41;29.20;99.90
37108;DHT22;23019;49.300;6.846;2022-10-16T03:44:42;29.10;99.90
37108;DHT22;23019;49.300;6.846;2022-10-16T03:46:43;29.10;99.90
37108;DHT22;23019;49.300;6.846;2022-10-16T03:48:43;29.10;99.90
37108;DHT22;23019;49.300;6.846;2022-10-16T03:50:44;29.10;99.90
37108;DHT22;23019;49.300;6.846;2022-10-16T03:52:45;29.10;99.90
37108;DHT22;23019;49.300;6.846;2022-10-16T03:54:46;29.10;99.90
37108;DHT22;23019;49.300;6.846;2022-10-16T03:56:47;29.00;99.90
37108;DHT22;23019;49.300;6.846;2022-10-16T03:58:47;29.00;99.90
37108;DHT22;23019;49.300;6.846;2022-10-16T04:00:48;29.00;99.90
37108;DHT22;23019;49.300;6.846;2022-10-16T04:02:49;28.90;99.90
37108;DHT22;23019;49.300;6.846;2022-10-16T04:04:50;29.00;99.90
37108;DHT22;23019;49.300;6.846;2022-10-16T04:06:51;29.00;99.90
37108;DHT22;23019;49.300;6.846;2022-10-16T04:08:51;28.90;99.90
37108;DHT22;23019;49.300;6.846;2022-10-16T04:10:52;28.80;99.90
37108;DHT22;23019;49.300;6.846;2022-10-16T04:12:53;28.80;99.90
37108;DHT22;23019;49.300;6.846;2022-10-16T04:14:56;28.80;99.90
37108;DHT22;23019;49.300;6.846;2022-10-16T04:16:57;28.80;99.90
37108;DHT22;23019;49.300;6.846;2022-10-16T04:18:57;28.70;99.90
37108;DHT22;23019;49.300;6.846;2022-10-16T04:21:07;28.80;99.90
37108;DHT22;23019;49.300;6.846;2022-10-16T04:23:08;28.70;99.90
37108;DHT22;23019;49.300;6.846;2022-10-16T04:25:09;28.70;99.90
37108;DHT22;23019;49.300;6.846;2022-10-16T04:27:09;28.70;99.90
37108;DHT22;23019;49.300;6.846;2022-10-16T04:29:10;28.70;99.90
37108;DHT22;23019;49.300;6.846;2022-10-16T04:31:11;28.60;99.90
37108;DHT22;23019;49.300;6.846;2022-10-16T04:33:11;28.60;99.90
37108;DHT22;23019;49.300;6.846;2022-10-16T04:35:20;28.60;99.90
37108;DHT22;23019;49.300;6.846;2022-10-16T04:37:27;28.50;99.90
37108;DHT22;23019;49.300;6.846;2022-10-16T04:39:28;28.50;99.90
37108;DHT22;23019;49.300;6.846;2022-10-16T04:41:28;28.50;99.90
37108;DHT22;23019;49.300;6.846;2022-10-16T04:43:29;28.50;99.90
37108;DHT22;23019;49.300;6.846;2022-10-16T04:45:30;28.50;99.90
37108;DHT22;23019;49.300;6.846;2022-10-16T04:47:31;28.50;99.90
37108;DHT22;23019;49.300;6.846;2022-10-16T04:49:31;28.40;99.90
37108;DHT22;23019;49.300;6.846;2022-10-16T04:51:32;28.30;99.90
37108;DHT22;23019;49.300;6.846;2022-10-16T04:53:33;28.40;99.90
37108;DHT22;23019;49.300;6.846;2022-10-16T04:55:34;28.40;99.90
37108;DHT22;23019;49.300;6.846;2022-10-16T04:57:35;28.40;99.90
37108;DHT22;23019;49.300;6.846;2022-10-16T04:59:36;28.40;99.90
37108;DHT22;23019;49.300;6.846;2022-10-16T05:01:37;28.30;99.90
37108;DHT22;23019;49.300;6.846;2022-10-16T05:03:37;28.30;99.90
37108;DHT22;23019;49.300;6.846;2022-10-16T05:05:45;28.20;99.90
37108;DHT22;23019;49.300;6.846;2022-10-16T05:07:47;28.20;99.90
37108;DHT22;23019;49.300;6.846;2022-10-16T05:09:48;28.20;99.90
37108;DHT22;23019;49.300;6.846;2022-10-16T05:11:49;28.20;99.90
37108;DHT22;23019;49.300;6.846;2022-10-16T05:13:49;28.10;99.90
37108;DHT22;23019;49.300;6.846;2022-10-16T05:15:50;28.10;99.90
37108;DHT22;23019;49.300;6.846;2022-10-16T05:17:54;28.00;99.90
37108;DHT22;23019;49.300;6.846;2022-10-16T05:19:55;28.00;99.90
37108;DHT22;23019;49.300;6.846;2022-10-16T05:21:56;27.90;99.90
37108;DHT22;23019;49.300;6.846;2022-10-16T05:23:57;27.90;99.90
37108;DHT22;23019;49.300;6.846;2022-10-16T05:25:59;28.00;99.90
37108;DHT22;23019;49.300;6.846;2022-10-16T05:28:00;28.00;99.90
37108;DHT22;23019;49.300;6.846;2022-10-16T05:30:01;27.90;99.90
37108;DHT22;23019;49.300;6.846;2022-10-16T05:32:01;27.90;99.90
37108;DHT22;23019;49.300;6.846;2022-10-16T05:34:02;28.00;99.90
37108;DHT22;23019;49.300;6.846;2022-10-16T05:36:08;27.90;99.90
37108;DHT22;23019;49.300;6.846;2022-10-16T05:38:09;27.90;99.90
37108;DHT22;23019;49.300;6.846;2022-10-16T05:40:10;27.80;99.90
37108;DHT22;23019;49.300;6.846;2022-10-16T05:42:11;27.70;99.90
37108;DHT22;23019;49.300;6.846;2022-10-16T05:44:12;27.70;99.90
37108;DHT22;23019;49.300;6.846;2022-10-16T05:46:12;27.70;99.90
37108;DHT22;23019;49.300;6.846;2022-10-16T05:48:13;27.70;99.90
37108;DHT22;23019;49.300;6.846;2022-10-16T05:50:14;27.70;99.90
37108;DHT22;23019;49.300;6.846;2022-10-16T05:52:15;27.70;99.90
37108;DHT22;23019;49.300;6.846;2022-10-16T05:54:16;27.70;99.90
37108;DHT22;23019;49.300;6.846;2022-10-16T05:56:19;27.70;99.90
37108;DHT22;23019;49.300;6.846;2022-10-16T05:58:21;27.60;99.90
37108;DHT22;23019;49.300;6.846;2022-10-16T06:00:22;27.60;99.90
37108;DHT22;23019;49.300;6.846;2022-10-16T06:02:23;27.50;99.90
37108;DHT22;23019;49.300;6.846;2022-10-16T06:04:23;27.50;99.90
37108;DHT22;23019;49.300;6.846;2022-10-16T06:06:28;27.50;99.90
37108;DHT22;23019;49.300;6.846;2022-10-16T06:08:31;27.50;99.90
37108;DHT22;23019;49.300;6.846;2022-10-16T06:10:32;27.50;99.90
37108;DHT22;23019;49.300;6.846;2022-10-16T06:12:33;27.40;99.90
37108;DHT22;23019;49.300;6.846;2022-10-16T06:14:33;27.40;99.90
37108;DHT22;23019;49.300;6.846;2022-10-16T06:16:36;27.40;99.90
37108;DHT22;23019;49.300;6.846;2022-10-16T06:18:37;27.30;99.90
37108;DHT22;23019;49.300;6.846;2022-10-16T06:20:38;27.30;99.90
37108;DHT22;23019;49.300;6.846;2022-10-16T06:22:39;27.30;99.90
37108;DHT22;23019;49.300;6.846;2022-10-16T06:24:39;27.20;99.90
37108;DHT22;23019;49.300;6.846;2022-10-16T06:26:40;27.20;99.90
37108;DHT22;23019;49.300;6.846;2022-10-16T06:28:42;27.20;99.90
37108;DHT22;23019;49.300;6.846;2022-10-16T06:30:43;27.10;99.90
37108;DHT22;23019;49.300;6.846;2022-10-16T06:32:47;27.10;99.90
37108;DHT22;23019;49.300;6.846;2022-10-16T06:34:47;27.20;99.90
37108;DHT22;23019;49.300;6.846;2022-10-16T06:36:48;27.10;99.90
37108;DHT22;23019;49.300;6.846;2022-10-16T06:38:49;27.10;99.90
37108;DHT22;23019;49.300;6.846;2022-10-16T06:40:50;27.10;99.90
37108;DHT22;23019;49.300;6.846;2022-10-16T06:42:50;27.00;99.90
37108;DHT22;23019;49.300;6.846;2022-10-16T06:44:52;27.00;99.90
37108;DHT22;23019;49.300;6.846;2022-10-16T06:46:53;27.10;99.90
37108;DHT22;23019;49.300;6.846;2022-10-16T06:48:54;27.10;99.90
37108;DHT22;23019;49.300;6.846;2022-10-16T06:53:02;27.00;99.90
37108;DHT22;23019;49.300;6.846;2022-10-16T06:55:04;26.90;99.90
37108;DHT22;23019;49.300;6.846;2022-10-16T06:57:05;26.90;99.90
37108;DHT22;23019;49.300;6.846;2022-10-16T06:59:05;26.90;99.90
37108;DHT22;23019;49.300;6.846;2022-10-16T07:01:07;26.90;99.90
37108;DHT22;23019;49.300;6.846;2022-10-16T07:03:08;26.90;99.90
37108;DHT22;23019;49.300;6.846;2022-10-16T07:05:09;26.80;99.90
37108;DHT22;23019;49.300;6.846;2022-10-16T07:07:10;26.80;99.90
37108;DHT22;23019;49.300;6.846;2022-10-16T07:09:11;26.80;99.90
37108;DHT22;23019;49.300;6.846;2022-10-16T07:11:14;26.80;99.90
37108;DHT22;23019;49.300;6.846;2022-10-16T07:13:15;26.70;99.90
37108;DHT22;23019;49.300;6.846;2022-10-16T07:15:16;26.80;99.90
37108;DHT22;23019;49.300;6.846;2022-10-16T07:17:16;26.80;99.90
37108;DHT22;23019;49.300;6.846;2022-10-16T07:19:17;26.70;99.90
37108;DHT22;23019;49.300;6.846;2022-10-16T07:21:19;26.70;99.90
37108;DHT22;23019;49.300;6.846;2022-10-16T07:23:21;26.70;99.90
37108;DHT22;23019;49.300;6.846;2022-10-16T07:25:21;26.70;99.90
37108;DHT22;23019;49.300;6.846;2022-10-16T07:27:22;26.70;99.90
37108;DHT22;23019;49.300;6.846;2022-10-16T07:29:24;26.60;99.90
37108;DHT22;23019;49.300;6.846;2022-10-16T07:31:25;26.60;99.90
37108;DHT22;23019;49.300;6.846;2022-10-16T07:33:26;26.60;99.90
37108;DHT22;23019;49.300;6.846;2022-10-16T07:35:26;26.50;99.90
37108;DHT22;23019;49.300;6.846;2022-10-16T07:37:30;26.50;99.90
37108;DHT22;23019;49.300;6.846;2022-10-16T07:39:37;26.40;99.90
37108;DHT22;23019;49.300;6.846;2022-10-16T07:44:02;26.40;99.90
37108;DHT22;23019;49.300;6.846;2022-10-16T07:46:03;26.40;99.90
37108;DHT22;23019;49.300;6.846;2022-10-16T07:48:04;26.40;99.90
37108;DHT22;23019;49.300;6.846;2022-10-16T07:50:50;26.40;99.90
37108;DHT22;23019;49.300;6.846;2022-10-16T07:52:51;26.40;99.90
37108;DHT22;23019;49.300;6.846;2022-10-16T07:59:17;26.30;99.90
37108;DHT22;23019;49.300;6.846;2022-10-16T08:01:49;26.40;99.90
37108;DHT22;23019;49.300;6.846;2022-10-16T08:07:20;26.30;99.90
37108;DHT22;23019;49.300;6.846;2022-10-16T08:23:31;26.10;99.90
37108;DHT22;23019;49.300;6.846;2022-10-16T08:25:35;26.20;99.90
37108;DHT22;23019;49.300;6.846;2022-10-16T08:27:39;26.10;99.90
37108;DHT22;23019;49.300;6.846;2022-10-16T08:29:40;26.00;99.90
37108;DHT22;23019;49.300;6.846;2022-10-16T08:39:20;26.00;99.90
37108;DHT22;23019;49.300;6.846;2022-10-16T08:41:54;26.00;99.90
37108;DHT22;23019;49.300;6.846;2022-10-16T09:24:49;25.50;99.90
37108;DHT22;23019;49.300;6.846;2022-10-16T09:27:11;25.50;99.90
37108;DHT22;23019;49.300;6.846;2022-10-16T09:32:45;25.50;99.90
37108;DHT22;23019;49.300;6.846;2022-10-16T09:35:13;25.50;99.90
37108;DHT22;23019;49.300;6.846;2022-10-16T09:51:01;25.40;99.90
37108;DHT22;23019;49.300;6.846;2022-10-16T09:57:35;25.30;99.90
37108;DHT22;23019;49.300;6.846;2022-10-16T10:07:18;25.20;99.90
37108;DHT22;23019;49.300;6.846;2022-10-16T10:12:36;25.20;99.90
37108;DHT22;23019;49.300;6.846;2022-10-16T10:24:41;25.10;99.90
37108;DHT22;23019;49.300;6.846;2022-10-16T10:27:15;25.10;99.90
37108;DHT22;23019;49.300;6.846;2022-10-16T10:36:38;25.00;99.90
37108;DHT22;23019;49.300;6.846;2022-10-16T10:57:08;24.90;99.90
37108;DHT22;23019;49.300;6.846;2022-10-16T11:19:54;24.70;99.90
37108;DHT22;23019;49.300;6.846;2022-10-16T11:30:29;24.60;99.90
37108;DHT22;23019;49.300;6.846;2022-10-16T11:35:24;24.60;99.90
37108;DHT22;23019;49.300;6.846;2022-10-16T11:37:31;24.60;99.90
37108;DHT22;23019;49.300;6.846;2022-10-16T11:39:33;24.60;99.90
37108;DHT22;23019;49.300;6.846;2022-10-16T11:42:11;24.60;99.90
37108;DHT22;23019;49.300;6.846;2022-10-16T11:46:38;24.60;99.90
37108;DHT22;23019;49.300;6.846;2022-10-16T11:48:55;24.50;99.90
37108;DHT22;23019;49.300;6.846;2022-10-16T11:51:33;24.50;99.90
37108;DHT22;23019;49.300;6.846;2022-10-16T11:53:59;24.50;99.90
37108;DHT22;23019;49.300;6.846;2022-10-16T11:56:03;24.50;99.90
37108;DHT22;23019;49.300;6.846;2022-10-16T12:00:09;24.40;99.90
37108;DHT22;23019;49.300;6.846;2022-10-16T12:08:15;24.40;99.90
37108;DHT22;23019;49.300;6.846;2022-10-16T12:10:26;24.40;99.90
37108;DHT22;23019;49.300;6.846;2022-10-16T12:12:38;24.40;99.90
37108;DHT22;23019;49.300;6.846;2022-10-16T12:14:39;24.30;99.90
37108;DHT22;23019;49.300;6.846;2022-10-16T12:16:53;24.30;99.90
37108;DHT22;23019;49.300;6.846;2022-10-16T12:19:15;24.30;99.90
37108;DHT22;23019;49.300;6.846;2022-10-16T12:21:30;24.30;99.90
37108;DHT22;23019;49.300;6.846;2022-10-16T12:23:32;24.30;99.90
37108;DHT22;23019;49.300;6.846;2022-10-16T12:26:06;24.20;99.90
37108;DHT22;23019;49.300;6.846;2022-10-16T12:28:21;24.20;99.90
37108;DHT22;23019;49.300;6.846;2022-10-16T12:30:23;24.20;99.90
37108;DHT22;23019;49.300;6.846;2022-10-16T12:32:31;24.20;99.90
37108;DHT22;23019;49.300;6.846;2022-10-16T12:36:36;24.20;99.90
37108;DHT22;23019;49.300;6.846;2022-10-16T12:38:48;24.20;99.90
37108;DHT22;23019;49.300;6.846;2022-10-16T12:41:06;24.20;99.90
37108;DHT22;23019;49.300;6.846;2022-10-16T12:45:34;24.10;99.90
37108;DHT22;23019;49.300;6.846;2022-10-16T12:47:37;24.10;99.90
37108;DHT22;23019;49.300;6.846;2022-10-16T12:49:50;24.00;99.90
37108;DHT22;23019;49.300;6.846;2022-10-16T12:52:23;24.00;99.90
37108;DHT22;23019;49.300;6.846;2022-10-16T12:54:38;24.00;99.90
37108;DHT22;23019;49.300;6.846;2022-10-16T13:02:04;24.00;99.90
37108;DHT22;23019;49.300;6.846;2022-10-16T13:09:02;24.00;99.90
37108;DHT22;23019;49.300;6.846;2022-10-16T13:11:29;24.00;99.90
37108;DHT22;23019;49.300;6.846;2022-10-16T13:13:46;23.90;99.90
37108;DHT22;23019;49.300;6.846;2022-10-16T13:16:04;23.90;99.90
37108;DHT22;23019;49.300;6.846;2022-10-16T13:18:27;23.90;99.90
37108;DHT22;23019;49.300;6.846;2022-10-16T13:23:07;23.90;99.90
37108;DHT22;23019;49.300;6.846;2022-10-16T13:25:28;23.80;99.90
37108;DHT22;23019;49.300;6.846;2022-10-16T13:27:56;23.80;99.90
37108;DHT22;23019;49.300;6.846;2022-10-16T13:32:15;23.90;99.90
37108;DHT22;23019;49.300;6.846;2022-10-16T13:34:20;23.90;99.90
37108;DHT22;23019;49.300;6.846;2022-10-16T13:36:24;23.80;99.90
37108;DHT22;23019;49.300;6.846;2022-10-16T13:38:35;23.80;99.90
37108;DHT22;23019;49.300;6.846;2022-10-16T13:40:36;23.80;99.90
37108;DHT22;23019;49.300;6.846;2022-10-16T13:42:37;23.80;99.90
37108;DHT22;23019;49.300;6.846;2022-10-16T13:44:46;23.80;99.90
37108;DHT22;23019;49.300;6.846;2022-10-16T13:46:58;23.80;99.90
37108;DHT22;23019;49.300;6.846;2022-10-16T13:49:03;23.80;99.90
37108;DHT22;23019;49.300;6.846;2022-10-16T13:51:18;23.70;99.90
37108;DHT22;23019;49.300;6.846;2022-10-16T13:53:19;23.80;99.90
37108;DHT22;23019;49.300;6.846;2022-10-16T13:55:19;23.70;99.90
37108;DHT22;23019;49.300;6.846;2022-10-16T13:57:25;23.70;99.90
37108;DHT22;23019;49.300;6.846;2022-10-16T13:59:34;23.70;99.90
37108;DHT22;23019;49.300;6.846;2022-10-16T14:01:43;23.70;99.90
37108;DHT22;23019;49.300;6.846;2022-10-16T14:04:08;23.70;99.90
37108;DHT22;23019;49.300;6.846;2022-10-16T14:10:31;23.70;99.90
37108;DHT22;23019;49.300;6.846;2022-10-16T14:12:35;23.60;99.90
37108;DHT22;23019;49.300;6.846;2022-10-16T14:14:44;23.60;99.90
37108;DHT22;23019;49.300;6.846;2022-10-16T14:16:54;23.60;99.90
37108;DHT22;23019;49.300;6.846;2022-10-16T14:19:03;23.60;99.90
37108;DHT22;23019;49.300;6.846;2022-10-16T14:21:16;23.60;99.90
37108;DHT22;23019;49.300;6.846;2022-10-16T14:23:43;23.60;99.90
37108;DHT22;23019;49.300;6.846;2022-10-16T14:26:45;23.60;99.90
37108;DHT22;23019;49.300;6.846;2022-10-16T14:31:33;23.60;99.90
37108;DHT22;23019;49.300;6.846;2022-10-16T14:33:34;23.50;99.90
37108;DHT22;23019;49.300;6.846;2022-10-16T14:35:39;23.50;99.90
37108;DHT22;23019;49.300;6.846;2022-10-16T14:37:40;23.50;99.90
37108;DHT22;23019;49.300;6.846;2022-10-16T14:39:51;23.50;99.90
37108;DHT22;23019;49.300;6.846;2022-10-16T14:42:14;23.50;99.90
37108;DHT22;23019;49.300;6.846;2022-10-16T14:44:25;23.50;99.90
37108;DHT22;23019;49.300;6.846;2022-10-16T14:46:35;23.50;99.90
37108;DHT22;23019;49.300;6.846;2022-10-16T14:49:00;23.40;99.90
37108;DHT22;23019;49.300;6.846;2022-10-16T14:51:04;23.40;99.90
37108;DHT22;23019;49.300;6.846;2022-10-16T14:53:11;23.40;99.90
37108;DHT22;23019;49.300;6.846;2022-10-16T14:55:18;23.40;99.90
37108;DHT22;23019;49.300;6.846;2022-10-16T14:57:23;23.40;99.90
37108;DHT22;23019;49.300;6.846;2022-10-16T14:59:34;23.40;99.90
37108;DHT22;23019;49.300;6.846;2022-10-16T15:01:43;23.40;99.90
37108;DHT22;23019;49.300;6.846;2022-10-16T15:03:59;23.40;99.90
37108;DHT22;23019;49.300;6.846;2022-10-16T15:06:00;23.30;99.90
37108;DHT22;23019;49.300;6.846;2022-10-16T15:08:00;23.30;99.90
37108;DHT22;23019;49.300;6.846;2022-10-16T15:10:01;23.30;99.90
37108;DHT22;23019;49.300;6.846;2022-10-16T15:12:20;23.30;99.90
37108;DHT22;23019;49.300;6.846;2022-10-16T15:14:21;23.40;99.90
37108;DHT22;23019;49.300;6.846;2022-10-16T15:16:32;23.50;99.90
37108;DHT22;23019;49.300;6.846;2022-10-16T15:19:03;24.00;99.90
37108;DHT22;23019;49.300;6.846;2022-10-16T15:21:31;25.00;99.90
37108;DHT22;23019;49.300;6.846;2022-10-16T15:23:41;27.60;99.90
37108;DHT22;23019;49.300;6.846;2022-10-16T15:25:44;29.90;99.90
37108;DHT22;23019;49.300;6.846;2022-10-16T15:27:45;31.80;99.90
37108;DHT22;23019;49.300;6.846;2022-10-16T15:30:01;32.90;99.90
37108;DHT22;23019;49.300;6.846;2022-10-16T15:32:01;33.60;99.90
37108;DHT22;23019;49.300;6.846;2022-10-16T15:34:05;34.10;99.90
37108;DHT22;23019;49.300;6.846;2022-10-16T15:36:29;34.20;99.90
37108;DHT22;23019;49.300;6.846;2022-10-16T15:38:30;34.50;99.90
37108;DHT22;23019;49.300;6.846;2022-10-16T15:40:31;34.80;99.90
37108;DHT22;23019;49.300;6.846;2022-10-16T15:42:37;35.40;99.90
37108;DHT22;23019;49.300;6.846;2022-10-16T15:44:41;35.90;99.90
37108;DHT22;23019;49.300;6.846;2022-10-16T15:46:54;36.40;99.90
37108;DHT22;23019;49.300;6.846;2022-10-16T15:49:09;36.60;99.90
37108;DHT22;23019;49.300;6.846;2022-10-16T15:51:37;36.80;99.90
37108;DHT22;23019;49.300;6.846;2022-10-16T15:53:38;36.60;99.90
37108;DHT22;23019;49.300;6.846;2022-10-16T15:55:42;36.80;99.90
37108;DHT22;23019;49.300;6.846;2022-10-16T15:57:43;36.50;99.90
37108;DHT22;23019;49.300;6.846;2022-10-16T15:59:43;36.40;99.90
37108;DHT22;23019;49.300;6.846;2022-10-16T16:01:59;36.50;99.90
37108;DHT22;23019;49.300;6.846;2022-10-16T16:04:04;36.40;99.90
37108;DHT22;23019;49.300;6.846;2022-10-16T16:06:13;36.60;99.90
37108;DHT22;23019;49.300;6.846;2022-10-16T16:08:14;37.00;99.90
37108;DHT22;23019;49.300;6.846;2022-10-16T16:10:15;37.70;99.90
37108;DHT22;23019;49.300;6.846;2022-10-16T16:12:18;38.00;99.90
37108;DHT22;23019;49.300;6.846;2022-10-16T16:14:24;38.30;99.90
37108;DHT22;23019;49.300;6.846;2022-10-16T16:16:26;38.80;99.90
37108;DHT22;23019;49.300;6.846;2022-10-16T16:18:36;39.10;99.90
37108;DHT22;23019;49.300;6.846;2022-10-16T16:20:40;39.50;99.90
37108;DHT22;23019;49.300;6.846;2022-10-16T16:22:41;39.90;99.90
37108;DHT22;23019;49.300;6.846;2022-10-16T16:24:42;40.20;99.90
37108;DHT22;23019;49.300;6.846;2022-10-16T16:26:56;40.40;99.90
37108;DHT22;23019;49.300;6.846;2022-10-16T16:28:57;40.60;99.90
37108;DHT22;23019;49.300;6.846;2022-10-16T16:31:01;40.80;99.90
37108;DHT22;23019;49.300;6.846;2022-10-16T16:33:03;40.90;99.90
37108;DHT22;23019;49.300;6.846;2022-10-16T16:35:27;41.20;99.90
37108;DHT22;23019;49.300;6.846;2022-10-16T16:37:27;41.30;99.90
37108;DHT22;23019;49.300;6.846;2022-10-16T16:39:43;41.50;99.90
37108;DHT22;23019;49.300;6.846;2022-10-16T16:41:59;41.70;99.90
37108;DHT22;23019;49.300;6.846;2022-10-16T16:44:08;41.60;99.90
37108;DHT22;23019;49.300;6.846;2022-10-16T16:46:19;41.60;99.90
37108;DHT22;23019;49.300;6.846;2022-10-16T16:48:21;41.90;99.90
37108;DHT22;23019;49.300;6.846;2022-10-16T16:50:25;41.80;99.90
37108;DHT22;23019;49.300;6.846;2022-10-16T16:52:28;41.80;99.90
37108;DHT22;23019;49.300;6.846;2022-10-16T16:54:30;41.80;99.90
37108;DHT22;23019;49.300;6.846;2022-10-16T16:56:45;41.80;99.90